Time;durP1;ratioP1;P1;durP2;ratioP2;P2;SDS_P1;SDS_P2;PMS_P1;PMS_P2;Temp;Humidity;BMP_temperature;BMP_pressure;BME280_temperature;BME280_humidity;BME280_pressure;Samples;Min_cycle;Max_cycle;Signal;HPM_P1;HPM_P2
2022/02/05 00:03:27;;;;;;;236.75;133.38;;;25.90;2201.60;;;;;;4940495;29;20046;-86
2022/02/05 00:06:00;;;;;;;218.05;117.03;;;25.80;2201.60;;;;;;4923730;29;20036;-87
2022/02/05 00:08:39;;;;;;;164.20;96.45;;;25.90;2201.60;;;;;;4923416;29;20031;-87
2022/02/05 00:11:32;;;;;;;150.40;89.82;;;25.70;2201.60;;;;;;4923339;29;20460;-85
2022/02/05 00:20:06;;;;;;;202.18;115.38;;;25.90;2201.60;;;;;;4940093;29;20380;-89
2022/02/05 00:41:12;;;;;;;117.45;72.90;;;0.80;2201.60;;;;;;4939757;29;20476;-89
2022/02/05 00:43:42;;;;;;;123.00;74.10;;;0.90;2201.60;;;;;;4922730;29;20432;-82
2022/02/05 00:46:09;;;;;;;146.38;85.10;;;0.90;2201.60;;;;;;4922584;29;20036;-87
2022/02/05 00:48:34;;;;;;;287.98;148.65;;;0.80;2201.60;;;;;;4922448;29;20036;-87
2022/02/05 00:51:12;;;;;;;181.85;94.85;;;0.80;2201.60;;;;;;4922527;29;20039;-88
2022/02/05 00:53:40;;;;;;;150.70;80.35;;;0.80;2201.60;;;;;;4922363;29;20445;-88
2022/02/05 00:56:21;;;;;;;142.40;77.28;;;0.80;2201.60;;;;;;4922420;29;20030;-87
2022/02/05 00:58:47;;;;;;;159.35;79.97;;;0.80;2201.60;;;;;;4922243;29;20043;-89
2022/02/05 01:01:13;;;;;;;148.15;76.60;;;0.80;2201.60;;;;;;4922185;29;20031;-87
2022/02/05 01:03:39;;;;;;;177.85;93.28;;;0.70;2201.60;;;;;;4922247;29;20079;-85
2022/02/05 01:06:06;;;;;;;174.30;93.40;;;0.70;2201.60;;;;;;4922089;29;20098;-89
2022/02/05 01:08:34;;;;;;;109.45;64.05;;;0.80;2201.60;;;;;;4922465;29;20054;-87
2022/02/05 01:11:00;;;;;;;101.50;61.90;;;0.90;2201.60;;;;;;4922506;29;20024;-87
2022/02/05 01:13:29;;;;;;;102.40;59.60;;;0.90;2201.60;;;;;;4921744;29;20035;-89
2022/02/05 01:16:06;;;;;;;124.70;71.13;;;0.70;2201.60;;;;;;4922204;29;20028;-88
2022/02/05 01:18:34;;;;;;;152.27;87.00;;;0.70;2201.60;;;;;;4922226;29;20032;-89
2022/02/05 01:23:42;;;;;;;138.65;77.88;;;0.50;2201.60;;;;;;4963004;28;20016;-86
2022/02/05 01:26:25;;;;;;;149.68;85.13;;;0.70;2201.60;;;;;;4927364;29;20038;-87
2022/02/05 01:28:57;;;;;;;;;;;0.60;2201.60;;;;;;4923520;29;20103;-88
2022/02/05 01:31:28;;;;;;;151.52;85.72;;;0.60;2201.60;;;;;;4922915;29;19907;-87
2022/02/05 01:34:11;;;;;;;182.13;106.43;;;0.70;2201.60;;;;;;4921878;29;20032;-90
2022/02/05 01:50:36;;;;;;;106.20;59.15;;;0.50;2201.60;;;;;;4938771;29;20039;-89
2022/02/05 01:53:48;;;;;;;100.90;59.33;;;0.60;2201.60;;;;;;4921596;29;20550;-87
2022/02/05 01:56:18;;;;;;;70.75;42.50;;;0.70;2201.60;;;;;;4935384;29;20039;-87
2022/02/05 02:09:54;;;;;;;128.18;66.55;;;0.30;2201.60;;;;;;4937978;29;20066;-87
2022/02/05 02:12:24;;;;;;;105.85;56.20;;;0.40;2201.60;;;;;;4921412;29;20032;-87
2022/02/05 02:26:01;;;;;;;126.00;66.60;;;0.60;2201.60;;;;;;4903974;29;20124;-86
2022/02/05 02:31:23;;;;;;;100.85;55.08;;;0.40;2201.60;;;;;;4937720;29;20032;-86
2022/02/05 02:33:54;;;;;;;103.55;53.35;;;0.30;2201.60;;;;;;4920862;29;20027;-86
2022/02/05 02:36:34;;;;;;;92.38;50.92;;;0.30;2201.60;;;;;;4920579;29;20024;-86
2022/02/05 02:39:17;;;;;;;66.75;40.35;;;0.50;2201.60;;;;;;4920760;29;20058;-86
2022/02/05 02:42:08;;;;;;;;;;;0.60;2201.60;;;;;;4921034;29;20079;-87
2022/02/05 02:44:29;;;;;;;96.60;53.20;;;0.50;2201.60;;;;;;4936744;29;19906;-87
2022/02/05 02:46:55;;;;;;;131.73;76.88;;;0.50;2201.60;;;;;;4920592;29;20036;-87
2022/02/05 02:49:54;;;;;;;161.93;88.80;;;0.50;2201.60;;;;;;4920325;29;20039;-86
2022/02/05 02:57:52;;;;;;;127.60;70.20;;;0.60;2201.60;;;;;;4907210;29;20041;-86
2022/02/05 03:00:18;;;;;;;123.53;64.05;;;0.80;2201.60;;;;;;4920386;29;20064;-87
2022/02/05 03:02:43;;;;;;;107.07;60.45;;;0.80;2201.60;;;;;;4919905;29;20074;-89
2022/02/05 03:05:09;;;;;;;105.45;60.15;;;0.80;2201.60;;;;;;4920258;29;20114;-86
2022/02/05 03:07:35;;;;;;;107.97;58.33;;;0.90;2201.60;;;;;;4920405;29;20316;-87
2022/02/05 03:10:01;;;;;;;98.00;58.83;;;0.80;2201.60;;;;;;4919780;29;20036;-85
2022/02/05 03:12:27;;;;;;;115.05;63.22;;;0.80;2201.60;;;;;;4920090;29;20045;-84
2022/02/05 03:14:53;;;;;;;125.60;74.18;;;0.80;2201.60;;;;;;4920282;29;20028;-86
2022/02/05 03:17:21;;;;;;;174.68;95.75;;;0.70;2201.60;;;;;;4920155;29;20031;-86
2022/02/05 03:19:56;;;;;;;182.80;107.75;;;0.60;2201.60;;;;;;4919625;29;20031;-89
2022/02/05 03:22:24;;;;;;;190.23;106.85;;;0.60;2201.60;;;;;;4904783;29;20479;-88
2022/02/05 03:24:51;;;;;;;187.57;106.03;;;0.40;2201.60;;;;;;4919887;29;20130;-88
2022/02/05 03:27:19;;;;;;;187.70;108.10;;;0.30;2201.60;;;;;;4919296;29;20032;-86
2022/02/05 03:29:48;;;;;;;132.55;77.82;;;0.30;2201.60;;;;;;4919939;29;20548;-88
2022/02/05 03:32:15;;;;;;;142.95;79.50;;;0.30;2201.60;;;;;;4919674;29;20032;-87
2022/02/05 03:34:42;;;;;;;89.22;50.80;;;0.20;2201.60;;;;;;4919939;29;20055;-87
2022/02/05 03:37:08;;;;;;;90.90;50.65;;;0.10;2201.60;;;;;;4919760;29;20387;-84
2022/02/05 03:39:34;;;;;;;85.25;52.35;;;0.00;2201.60;;;;;;4919689;29;20031;-85
2022/02/05 03:42:00;;;;;;;92.28;53.45;;;12.90;2201.60;;;;;;4919890;29;20098;-87
2022/02/05 03:44:26;;;;;;;99.15;59.45;;;0.00;2201.60;;;;;;4919762;29;20063;-86
2022/02/05 03:46:54;;;;;;;121.47;69.22;;;0.10;2201.60;;;;;;4919489;29;20027;-86
2022/02/05 03:49:21;;;;;;;108.93;56.05;;;0.10;2201.60;;;;;;4919595;29;20032;-89
2022/02/05 03:51:48;;;;;;;95.55;53.78;;;0.20;2201.60;;;;;;4919944;29;20031;-87
2022/02/05 03:54:18;;;;;;;114.57;60.22;;;0.30;2201.60;;;;;;4919452;29;20031;-83
2022/02/05 03:56:45;;;;;;;96.07;52.42;;;0.40;2201.60;;;;;;4919869;29;20027;-85
2022/02/05 03:59:11;;;;;;;80.05;47.78;;;0.20;2201.60;;;;;;4919676;29;20476;-84
2022/02/05 04:01:37;;;;;;;79.00;48.33;;;12.90;2201.60;;;;;;4919412;29;20379;-83
2022/02/05 04:04:03;;;;;;;92.32;50.20;;;12.90;2201.60;;;;;;4919573;29;20115;-86
2022/02/05 04:06:29;;;;;;;72.50;41.08;;;0.00;2201.60;;;;;;4919540;29;20028;-83
2022/02/05 04:08:59;;;;;;;61.40;35.60;;;12.90;2201.60;;;;;;4919243;29;20032;-83
2022/02/05 04:16:53;;;;;;;71.13;40.05;;;13.10;2201.60;;;;;;4936622;29;20047;-81
2022/02/05 04:19:19;;;;;;;101.20;56.35;;;13.10;2201.60;;;;;;4919534;29;20036;-85
2022/02/05 04:21:45;;;;;;;88.47;50.72;;;13.10;2201.60;;;;;;4919302;29;20135;-83
2022/02/05 04:24:11;;;;;;;83.65;48.47;;;12.90;2201.60;;;;;;4919311;29;20067;-87
2022/02/05 04:26:37;;;;;;;96.90;53.95;;;12.90;2201.60;;;;;;4919480;29;20074;-86
2022/02/05 04:29:07;;;;;;;106.30;59.90;;;12.90;2201.60;;;;;;4918787;29;20067;-83
2022/02/05 04:31:34;;;;;;;107.07;61.88;;;13.00;2201.60;;;;;;4919352;29;20038;-87
2022/02/05 04:33:59;;;;;;;104.57;59.55;;;12.90;2201.60;;;;;;4919502;29;20424;-83
2022/02/05 04:36:25;;;;;;;103.45;62.17;;;12.90;2201.60;;;;;;4919030;29;20028;-84
2022/02/05 04:38:52;;;;;;;126.78;72.57;;;0.00;2201.60;;;;;;4922431;29;20032;-85
2022/02/05 04:41:24;;;;;;;111.18;66.70;;;0.00;2201.60;;;;;;4922715;29;20027;-89
2022/02/05 04:44:04;;;;;;;130.80;67.80;;;0.00;2201.60;;;;;;4922433;29;20038;-83
2022/02/05 04:57:49;;;;;;;75.25;44.70;;;12.90;2201.60;;;;;;4939084;29;20028;-87
2022/02/05 05:03:41;;;;;;;84.47;50.20;;;13.10;2201.60;;;;;;4939276;29;20468;-86
2022/02/05 05:19:26;;;;;;;467.95;186.35;;;13.20;2201.60;;;;;;4939002;29;20080;-83
2022/02/05 05:21:53;;;;;;;143.65;69.93;;;13.30;2201.60;;;;;;4922204;29;20055;-83
2022/02/05 05:24:19;;;;;;;130.65;76.47;;;13.20;2201.60;;;;;;4921900;29;20028;-86
2022/02/05 05:26:45;;;;;;;77.45;46.13;;;13.40;2201.60;;;;;;4922036;29;20031;-84
2022/02/05 05:29:11;;;;;;;77.70;43.95;;;13.50;2201.60;;;;;;4921570;29;20058;-87
2022/02/05 05:31:37;;;;;;;94.65;55.30;;;13.30;2201.60;;;;;;4921393;29;20079;-85
2022/02/05 05:34:03;;;;;;;71.68;43.45;;;13.30;2201.60;;;;;;4921610;29;20456;-83
2022/02/05 05:36:29;;;;;;;72.43;44.08;;;13.30;2201.60;;;;;;4921831;29;20036;-86
2022/02/05 05:39:02;;;;;;;89.70;52.33;;;13.20;2201.60;;;;;;4921459;29;20534;-85
2022/02/05 05:41:29;;;;;;;122.40;65.03;;;13.20;2201.60;;;;;;4921781;29;20028;-86
2022/02/05 05:46:40;;;;;;;153.77;86.60;;;13.20;2201.60;;;;;;4938822;29;20038;-84
2022/02/05 05:49:18;;;;;;;160.63;91.28;;;13.20;2201.60;;;;;;4921260;29;20432;-83
2022/02/05 05:51:48;;;;;;;173.55;95.38;;;13.10;2201.60;;;;;;4921716;29;20032;-88
2022/02/05 05:54:14;;;;;;;158.00;93.20;;;13.00;2201.60;;;;;;4921474;29;20032;-82
2022/02/05 05:56:42;;;;;;;143.88;79.35;;;0.10;2201.60;;;;;;4921810;29;20031;-84
2022/02/05 05:59:08;;;;;;;178.38;100.47;;;13.40;2201.60;;;;;;4921893;29;20531;-84
2022/02/05 06:01:37;;;;;;;177.63;110.57;;;13.60;2201.60;;;;;;4922456;29;20043;-82
2022/02/05 06:04:03;;;;;;;129.45;82.55;;;13.50;2201.60;;;;;;4925462;29;20459;-85
2022/02/05 06:06:29;;;;;;;130.75;80.65;;;12.90;2201.60;;;;;;4925668;29;20490;-83
2022/02/05 06:08:55;;;;;;;100.63;63.95;;;13.30;2201.60;;;;;;4925007;29;20036;-82
2022/02/05 06:11:21;;;;;;;97.22;54.15;;;13.30;2201.60;;;;;;4906600;29;20039;-85
2022/02/05 06:13:47;;;;;;;104.85;62.78;;;13.10;2201.60;;;;;;4920826;29;20392;-83
2022/02/05 06:16:16;;;;;;;105.43;64.90;;;13.30;2201.60;;;;;;4920912;29;20027;-82
2022/02/05 06:18:43;;;;;;;105.70;65.65;;;13.30;2201.60;;;;;;4921148;29;20031;-85
2022/02/05 06:21:09;;;;;;;145.57;87.28;;;13.10;2201.60;;;;;;4920491;29;20102;-84
2022/02/05 06:23:35;;;;;;;148.00;89.82;;;13.10;2201.60;;;;;;4921206;29;20027;-86
2022/02/05 06:26:01;;;;;;;153.30;91.30;;;13.10;2201.60;;;;;;4937999;29;20054;-86
2022/02/05 06:28:27;;;;;;;127.40;78.68;;;12.90;2201.60;;;;;;4920964;29;20368;-88
2022/02/05 06:30:54;;;;;;;143.68;86.13;;;0.10;2201.60;;;;;;4920922;29;20467;-85
2022/02/05 06:33:20;;;;;;;190.02;111.13;;;0.20;2201.60;;;;;;4920682;29;20079;-85
2022/02/05 06:35:46;;;;;;;184.38;101.18;;;0.30;2201.60;;;;;;4920657;29;20024;-85
2022/02/05 06:38:12;;;;;;;143.95;87.45;;;0.40;2201.60;;;;;;4920675;29;20028;-87
2022/02/05 06:40:39;;;;;;;130.60;68.65;;;0.20;2201.60;;;;;;4920712;29;20490;-84
2022/02/05 06:43:05;;;;;;;127.45;69.85;;;0.10;2201.60;;;;;;4920451;29;20034;-86
2022/02/05 06:45:31;;;;;;;123.43;69.28;;;0.20;2201.60;;;;;;4920270;29;20066;-90
2022/02/05 06:47:57;;;;;;;115.32;66.13;;;0.30;2201.60;;;;;;4920157;29;20035;-87
2022/02/05 06:50:23;;;;;;;109.60;62.70;;;0.30;2201.60;;;;;;4919929;29;20089;-86
2022/02/05 06:52:48;;;;;;;110.70;66.25;;;0.40;2201.60;;;;;;4920560;29;20036;-87
2022/02/05 06:55:15;;;;;;;127.50;69.57;;;0.50;2201.60;;;;;;4920412;29;20034;-88
2022/02/05 06:57:40;;;;;;;170.82;101.50;;;0.60;2201.60;;;;;;4920459;29;20486;-84
2022/02/05 07:00:08;;;;;;;123.50;73.13;;;0.50;2201.60;;;;;;4920032;29;20028;-84
2022/02/05 07:02:34;;;;;;;146.90;82.95;;;0.70;2201.60;;;;;;4919795;29;20035;-83
2022/02/05 07:05:00;;;;;;;125.80;74.43;;;0.80;2201.60;;;;;;4920204;29;20032;-80
2022/02/05 07:07:26;;;;;;;110.85;64.70;;;0.80;2201.60;;;;;;4920169;29;20035;-82
2022/02/05 07:09:53;;;;;;;97.18;54.30;;;0.80;2201.60;;;;;;4919958;29;20043;-86
2022/02/05 07:12:19;;;;;;;92.72;55.88;;;0.70;2201.60;;;;;;4920029;29;20036;-86
2022/02/05 07:14:59;;;;;;;87.60;54.30;;;0.80;2201.60;;;;;;4919841;29;20506;-84
2022/02/05 07:17:37;;;;;;;80.85;49.28;;;0.80;2201.60;;;;;;4919835;29;20456;-84
2022/02/05 07:22:37;;;;;;;71.15;47.17;;;0.80;2201.60;;;;;;4937261;29;20036;-85
2022/02/05 07:30:32;;;;;;;75.63;45.05;;;0.80;2201.60;;;;;;4936974;29;20483;-87
2022/02/05 07:32:58;;;;;;;76.25;48.83;;;0.90;2201.60;;;;;;4920225;29;20036;-84
2022/02/05 07:35:25;;;;;;;71.75;44.30;;;0.90;2201.60;;;;;;4919801;29;20439;-85
2022/02/05 07:37:55;;;;;;;64.00;40.67;;;0.90;2201.60;;;;;;4919452;29;20071;-83
2022/02/05 07:40:21;;;;;;;65.70;45.03;;;0.90;2201.60;;;;;;4919761;29;20039;-83
2022/02/05 07:42:47;;;;;;;69.10;48.65;;;25.60;2201.60;;;;;;4919677;29;20103;-84
2022/02/05 07:45:19;;;;;;;79.75;53.28;;;25.70;2201.60;;;;;;4917649;29;20437;-84
2022/02/05 07:47:46;;;;;;;97.28;59.72;;;25.70;2201.60;;;;;;4919174;29;20083;-77
2022/02/05 07:50:12;;;;;;;111.47;72.20;;;25.70;2201.60;;;;;;4918524;29;20063;-79
2022/02/05 07:52:38;;;;;;;94.63;56.13;;;25.80;2201.60;;;;;;4918198;29;20036;-79
2022/02/05 07:55:04;;;;;;;80.75;49.38;;;25.80;2201.60;;;;;;4918715;29;20059;-82
2022/02/05 07:57:30;;;;;;;106.53;66.80;;;25.80;2201.60;;;;;;4918339;29;20074;-82
2022/02/05 07:59:56;;;;;;;258.25;152.88;;;25.80;2201.60;;;;;;4918046;29;20064;-81
2022/02/05 08:02:21;;;;;;;901.30;418.17;;;25.80;2201.60;;;;;;4918556;29;20045;-80
2022/02/05 08:04:47;;;;;;;681.22;400.52;;;25.90;2201.60;;;;;;4918811;29;20036;-84
2022/02/05 08:07:13;;;;;;;743.20;461.85;;;25.90;2201.60;;;;;;4917976;29;20036;-83
2022/02/05 08:12:13;;;;;;;1390.90;695.45;;;26.10;2201.60;;;;;;4938123;29;20535;-81
2022/02/05 08:14:45;;;;;;;596.88;411.27;;;26.20;2201.60;;;;;;4925500;29;20028;-84
2022/02/05 08:17:31;;;;;;;158.35;113.88;;;26.40;2201.60;;;;;;4925984;29;20130;-84
2022/02/05 08:19:57;;;;;;;303.38;200.05;;;26.40;2201.60;;;;;;4924739;29;20066;-86
2022/02/05 08:22:23;;;;;;;104.88;74.55;;;26.40;2201.60;;;;;;4937228;29;20031;-86
2022/02/05 08:24:50;;;;;;;99.72;68.45;;;26.40;2201.60;;;;;;4937418;29;20034;-86
2022/02/05 08:27:16;;;;;;;108.75;63.28;;;26.50;2201.60;;;;;;4930958;29;20055;-85
2022/02/05 08:30:07;;;;;;;116.47;73.03;;;26.50;2201.60;;;;;;4948554;29;20063;-75
2022/02/05 08:32:29;;;;;;;170.23;98.50;;;51.20;2227.20;;;;;;4947146;29;20139;-80
2022/02/05 08:35:01;;;;;;;151.75;95.30;;;51.30;2227.20;;;;;;4923802;29;20031;-80
2022/02/05 08:37:30;;;;;;;156.32;101.25;;;51.40;2227.20;;;;;;4923711;29;20062;-83
2022/02/05 08:39:56;;;;;;;110.82;73.38;;;51.50;2227.20;;;;;;4922870;29;20400;-80
2022/02/05 08:42:22;;;;;;;117.78;74.50;;;51.40;2227.20;;;;;;4940163;29;20032;-84
2022/02/05 08:44:48;;;;;;;139.80;82.97;;;51.50;2227.20;;;;;;4939735;29;20028;-83
2022/02/05 08:47:13;;;;;;;167.68;94.80;;;51.50;2227.20;;;;;;4922693;29;20518;-82
2022/02/05 08:49:39;;;;;;;186.00;100.20;;;51.60;2227.20;;;;;;4938901;29;20035;-86
2022/02/05 08:52:08;;;;;;;191.05;95.20;;;51.50;2227.20;;;;;;4922275;29;20079;-86
2022/02/05 08:54:38;;;;;;;138.10;82.80;;;51.60;2227.20;;;;;;4922169;29;20024;-85
2022/02/05 08:57:05;;;;;;;266.23;130.38;;;51.60;2227.20;;;;;;4922366;29;20055;-83
2022/02/05 08:59:43;;;;;;;305.00;132.40;;;51.70;2227.20;;;;;;4922310;29;20373;-83
2022/02/05 09:02:18;;;;;;;176.25;96.05;;;51.80;2227.20;;;;;;4922049;29;20028;-83
2022/02/05 09:07:09;;;;;;;155.18;85.22;;;51.80;2227.20;;;;;;4939218;29;20030;-88
2022/02/05 09:09:49;;;;;;;149.02;85.45;;;51.80;2227.20;;;;;;4921616;29;20032;-82
2022/02/05 09:15:00;;;;;;;146.07;95.32;;;76.80;2227.20;;;;;;4939068;29;20039;-83
2022/02/05 09:17:26;;;;;;;186.73;111.78;;;77.10;2227.20;;;;;;4921869;29;20024;-84
2022/02/05 09:19:52;;;;;;;123.53;82.70;;;77.10;2227.20;;;;;;4922000;29;20055;-89
2022/02/05 09:22:18;;;;;;;134.23;79.10;;;77.00;2227.20;;;;;;4921975;29;20064;-83
2022/02/05 09:24:43;;;;;;;120.25;77.72;;;77.10;2227.20;;;;;;4922272;29;20028;-84
2022/02/05 09:27:12;;;;;;;120.30;76.05;;;77.20;2227.20;;;;;;4922085;29;20171;-87
2022/02/05 09:30:00;;;;;;;138.02;89.95;;;77.30;2227.20;;;;;;4921966;29;20027;-82
2022/02/05 09:32:27;;;;;;;212.30;105.57;;;77.30;2227.20;;;;;;4922282;29;20035;-88
2022/02/05 09:34:53;;;;;;;167.68;87.97;;;77.20;2227.20;;;;;;4922098;29;20032;-84
2022/02/05 09:37:19;;;;;;;168.38;87.18;;;77.30;2227.20;;;;;;4922063;29;20031;-90
2022/02/05 09:39:45;;;;;;;217.70;111.35;;;77.30;2227.20;;;;;;4922318;29;20079;-88
2022/02/05 09:42:13;;;;;;;199.45;106.03;;;77.40;2227.20;;;;;;4922145;29;20087;-87
2022/02/05 09:44:38;;;;;;;169.48;89.10;;;77.40;2227.20;;;;;;4921998;29;20050;-87
2022/02/05 09:47:05;;;;;;;205.30;105.15;;;77.40;2227.20;;;;;;4921880;29;20028;-87
2022/02/05 09:49:31;;;;;;;134.50;78.72;;;77.50;2227.20;;;;;;4921589;29;20045;-87
2022/02/05 09:52:19;;;;;;;148.98;82.60;;;77.50;2227.20;;;;;;4921442;29;20078;-88
2022/02/05 09:54:46;;;;;;;155.68;85.07;;;77.60;2227.20;;;;;;4921522;29;20023;-89
2022/02/05 09:57:12;;;;;;;147.60;81.45;;;77.60;2227.20;;;;;;4938297;29;20035;-85
2022/02/05 09:59:46;;;;;;;146.90;83.35;;;77.70;2227.20;;;;;;4921337;29;20035;-84
2022/02/05 10:02:33;;;;;;;163.20;100.07;;;77.70;2227.20;;;;;;4921498;29;20083;-85
2022/02/05 10:05:15;;;;;;;143.35;91.43;;;102.40;2227.20;;;;;;4918173;29;20483;-88
2022/02/05 10:08:03;;;;;;;110.77;68.97;;;102.50;2227.20;;;;;;4919132;29;20087;-85
2022/02/05 10:10:43;;;;;;;85.10;56.53;;;102.50;2227.20;;;;;;4920906;29;20437;-84
2022/02/05 10:13:18;;;;;;;86.80;57.35;;;102.50;2227.20;;;;;;4920813;29;20433;-77
2022/02/05 10:15:52;;;;;;;90.07;54.20;;;102.40;2227.20;;;;;;4921052;29;20027;-87
2022/02/05 10:18:30;;;;;;;84.88;54.45;;;102.40;2227.20;;;;;;4920507;29;20487;-87
2022/02/05 10:21:18;;;;;;;105.00;59.72;;;102.50;2227.20;;;;;;4920697;29;20051;-84
2022/02/05 10:23:59;;;;;;;119.00;71.93;;;102.50;2227.20;;;;;;4920935;29;20119;-86
2022/02/05 10:26:47;;;;;;;110.90;67.63;;;102.50;2227.20;;;;;;4920513;29;20032;-86
2022/02/05 10:32:47;;;;;;;72.32;49.55;;;102.60;2227.20;;;;;;4937555;29;20392;-86
2022/02/05 10:35:52;;;;;;;99.88;68.22;;;102.60;2227.20;;;;;;4920134;29;20043;-85
2022/02/05 10:46:06;;;;;;;;;;;;;;;;;;;;;
2022/02/05 10:49:39;;;;;;;105.05;66.05;;;102.90;2227.20;;;;;;4935855;29;20046;-86
2022/02/05 10:52:44;;;;;;;109.28;65.35;;;103.00;2227.20;;;;;;4821432;29;20537;-85
2022/02/05 11:05:15;;;;;;;94.93;58.00;;;103.10;2227.20;;;;;;4937263;29;20486;-87
2022/02/05 11:08:19;;;;;;;;;;;;;;;;;;;;;
2022/02/05 11:21:18;;;;;;;82.88;53.95;;;103.30;2227.20;;;;;;4936549;29;20079;-86
2022/02/05 11:23:52;;;;;;;86.43;56.92;;;103.30;2227.20;;;;;;4920293;29;20047;-84
2022/02/05 11:26:21;;;;;;;103.13;65.35;;;128.10;2252.80;;;;;;4920225;29;20020;-87
2022/02/05 11:28:54;;;;;;;106.78;68.35;;;128.10;2252.80;;;;;;4919720;29;20126;-85
2022/02/05 11:31:29;;;;;;;121.57;82.57;;;128.20;2252.80;;;;;;4920051;29;20480;-85
2022/02/05 11:34:13;;;;;;;117.20;82.07;;;128.40;2252.80;;;;;;4920048;29;20114;-85
2022/02/05 11:36:40;;;;;;;143.52;87.15;;;128.40;2252.80;;;;;;4919947;29;20028;-85
2022/02/05 11:39:06;;;;;;;131.90;86.32;;;128.50;2252.80;;;;;;4920236;29;20380;-85
2022/02/05 11:41:36;;;;;;;102.53;70.28;;;128.60;2252.80;;;;;;4919727;29;20031;-87
2022/02/05 11:44:19;;;;;;;100.82;67.13;;;128.70;2252.80;;;;;;4919603;29;20027;-87
2022/02/05 11:47:03;;;;;;;102.18;67.10;;;128.70;2252.80;;;;;;4920385;29;20550;-87
2022/02/05 11:49:51;;;;;;;93.57;65.80;;;128.80;2252.80;;;;;;4923562;29;20040;-85
2022/02/05 11:52:35;;;;;;;99.53;64.50;;;128.90;2252.80;;;;;;4923926;29;20487;-86
2022/02/05 12:08:49;;;;;;;180.80;120.57;;;153.90;2252.80;;;;;;4844839;29;20049;-83
2022/02/05 12:14:37;;;;;;;194.30;131.55;;;154.10;2252.80;;;;;;4844721;29;20102;-87
2022/02/05 12:21:11;;;;;;;175.10;115.13;;;154.10;2252.80;;;;;;4830724;29;20075;-87
2022/02/05 12:27:55;;;;;;;;;;;;;;;;;;;;;
2022/02/05 12:34:08;;;;;;;247.15;150.75;;;154.40;2252.80;;;;;;4939956;29;20106;-85
2022/02/05 12:36:49;;;;;;;199.07;132.85;;;154.50;2252.80;;;;;;4939875;29;20088;-85
2022/02/05 12:39:28;;;;;;;198.00;128.15;;;154.50;2252.80;;;;;;4922267;29;20036;-83
2022/02/05 12:42:00;;;;;;;193.18;132.00;;;179.20;2252.80;;;;;;4922806;29;20135;-84
2022/02/05 12:44:29;;;;;;;190.43;124.80;;;179.20;2252.80;;;;;;4922930;29;20498;-87
2022/02/05 12:47:04;;;;;;;165.52;109.88;;;179.30;2252.80;;;;;;4922565;29;20039;-85
2022/02/05 12:52:21;;;;;;;160.48;105.22;;;179.30;2252.80;;;;;;4939492;29;20412;-87
2022/02/05 12:54:55;;;;;;;134.55;85.88;;;179.40;2252.80;;;;;;4922682;29;20123;-85
2022/02/05 12:57:21;;;;;;;119.55;83.20;;;179.40;2252.80;;;;;;4922419;29;20039;-87
2022/02/05 12:59:47;;;;;;;118.28;80.10;;;179.40;2252.80;;;;;;4921756;29;20094;-87
2022/02/05 13:02:16;;;;;;;100.82;64.32;;;179.60;2252.80;;;;;;4922253;29;20031;-86
2022/02/05 13:04:50;;;;;;;96.43;62.47;;;179.60;2252.80;;;;;;4922308;29;20027;-86
2022/02/05 13:07:18;;;;;;;109.70;71.28;;;179.70;2252.80;;;;;;4921966;29;20479;-84
2022/02/05 13:09:56;;;;;;;106.75;72.22;;;179.80;2252.80;;;;;;4922270;29;20036;-86
2022/02/05 13:12:34;;;;;;;117.70;78.82;;;179.80;2252.80;;;;;;4922233;29;20489;-86
2022/02/05 13:15:26;;;;;;;122.68;82.57;;;179.90;2252.80;;;;;;4921870;29;20030;-84
2022/02/05 13:25:54;;;;;;;139.52;97.43;;;180.00;2252.80;;;;;;4939160;29;20067;-85
2022/02/05 13:36:29;;;;;;;107.32;75.47;;;179.90;2252.80;;;;;;4938747;29;20361;-86
2022/02/05 13:39:12;;;;;;;106.10;73.75;;;180.10;2252.80;;;;;;4921920;29;20030;-83
2022/02/05 13:42:05;;;;;;;;;;;180.10;2252.80;;;;;;4921965;29;20066;-83
2022/02/05 13:44:55;;;;;;;130.68;74.47;;;180.10;2252.80;;;;;;4937600;29;19954;-85
2022/02/05 13:47:24;;;;;;;77.57;51.03;;;180.10;2252.80;;;;;;4921588;29;20032;-83
2022/02/05 13:50:11;;;;;;;61.25;39.35;;;180.10;2252.80;;;;;;4921109;29;20446;-84
2022/02/05 13:52:38;;;;;;;107.50;53.60;;;180.10;2252.80;;;;;;4921312;29;20106;-85
2022/02/05 13:55:26;;;;;;;125.15;61.30;;;180.10;2252.80;;;;;;4921490;29;20040;-84
2022/02/05 13:57:52;;;;;;;97.50;51.35;;;180.10;2252.80;;;;;;4921350;29;20464;-86
2022/02/05 14:00:18;;;;;;;92.18;53.08;;;180.10;2252.80;;;;;;4921354;29;20039;-87
2022/02/05 14:02:44;;;;;;;76.93;67.28;;;180.10;2252.80;;;;;;4921056;29;20028;-84
2022/02/05 14:05:14;;;;;;;108.97;63.22;;;180.10;2252.80;;;;;;4921001;29;20637;-84
2022/02/05 14:07:47;;;;;;;109.45;63.58;;;180.10;2252.80;;;;;;4921129;29;20030;-85
2022/02/05 14:10:18;;;;;;;89.22;55.65;;;180.10;2252.80;;;;;;4919930;29;20167;-82
2022/02/05 14:12:57;;;;;;;95.55;55.25;;;180.10;2252.80;;;;;;4938084;29;20027;-84
2022/02/05 14:15:26;;;;;;;97.15;60.55;;;180.10;2252.80;;;;;;4920983;29;20024;-84
2022/02/05 14:18:07;;;;;;;100.00;60.78;;;180.10;2252.80;;;;;;4920390;29;20035;-85
2022/02/05 14:20:38;;;;;;;97.78;57.40;;;180.10;2252.80;;;;;;4920806;29;20106;-86
2022/02/05 14:23:06;;;;;;;92.43;58.70;;;180.00;2252.80;;;;;;4920596;29;20024;-85
2022/02/05 14:25:56;;;;;;;93.78;61.05;;;180.10;2252.80;;;;;;4920567;29;20027;-85
2022/02/05 14:28:30;;;;;;;101.38;63.00;;;180.00;2252.80;;;;;;4920726;29;20030;-84
2022/02/05 14:33:38;;;;;;;118.60;80.15;;;179.90;2252.80;;;;;;4937439;29;20027;-86
2022/02/05 14:36:23;;;;;;;128.90;87.22;;;179.90;2252.80;;;;;;4937696;29;20024;-85
2022/02/05 14:41:33;;;;;;;130.43;90.03;;;179.90;2252.80;;;;;;4937607;29;20119;-85
2022/02/05 14:43:59;;;;;;;132.52;90.80;;;179.90;2252.80;;;;;;4920553;29;20115;-85
2022/02/05 14:46:25;;;;;;;147.52;91.63;;;179.90;2252.80;;;;;;4919996;29;20024;-87
2022/02/05 14:48:51;;;;;;;141.48;92.78;;;179.80;2252.80;;;;;;4920326;29;20051;-84
2022/02/05 14:51:16;;;;;;;148.85;97.45;;;179.80;2252.80;;;;;;4920111;29;20039;-84
2022/02/05 14:53:42;;;;;;;145.90;98.05;;;179.80;2252.80;;;;;;4920474;29;20024;-85
2022/02/05 14:56:08;;;;;;;174.35;111.82;;;179.80;2252.80;;;;;;4920364;29;20034;-85
2022/02/05 14:58:34;;;;;;;274.13;169.82;;;179.70;2252.80;;;;;;4920030;29;20032;-84
2022/02/05 15:01:03;;;;;;;242.70;150.48;;;179.70;2252.80;;;;;;4936894;29;20185;-85
2022/02/05 15:03:29;;;;;;;243.43;142.90;;;179.70;2252.80;;;;;;4937378;29;20031;-84
2022/02/05 15:05:59;;;;;;;216.35;137.27;;;179.70;2252.80;;;;;;4919859;29;20098;-84
2022/02/05 15:08:25;;;;;;;210.68;132.98;;;179.70;2252.80;;;;;;4920230;29;20024;-85
2022/02/05 15:10:51;;;;;;;222.13;142.60;;;179.70;2252.80;;;;;;4919815;29;20035;-84
2022/02/05 15:13:16;;;;;;;247.43;154.23;;;179.70;2252.80;;;;;;4920292;29;20023;-86
2022/02/05 15:15:50;;;;;;;287.55;179.75;;;179.60;2252.80;;;;;;4920097;29;20028;-85
2022/02/05 15:18:16;;;;;;;264.77;167.00;;;179.60;2252.80;;;;;;4919940;29;20036;-86
2022/02/05 15:20:42;;;;;;;234.45;147.98;;;179.50;2252.80;;;;;;4919854;29;20071;-89
2022/02/05 15:23:09;;;;;;;170.02;104.72;;;179.40;2252.80;;;;;;4919633;29;20483;-88
2022/02/05 15:25:35;;;;;;;136.57;81.32;;;179.40;2252.80;;;;;;4919714;29;20038;-88
2022/02/05 15:28:00;;;;;;;125.47;78.10;;;179.40;2252.80;;;;;;4920010;29;20126;-83
2022/02/05 15:30:29;;;;;;;119.35;71.25;;;179.40;2252.80;;;;;;4919648;29;20032;-83
2022/02/05 15:32:55;;;;;;;122.28;71.35;;;179.50;2252.80;;;;;;4920031;29;20031;-85
2022/02/05 15:35:22;;;;;;;118.82;78.57;;;179.50;2252.80;;;;;;4936665;29;20031;-86
2022/02/05 15:37:48;;;;;;;167.90;110.05;;;179.40;2252.80;;;;;;4919888;29;20028;-84
2022/02/05 15:45:24;;;;;;;217.77;148.63;;;179.30;2252.80;;;;;;4936763;29;20035;-85
2022/02/05 15:47:50;;;;;;;227.95;150.50;;;179.20;2252.80;;;;;;4933623;28;20019;-83
2022/02/05 15:50:15;;;;;;;230.10;152.80;;;179.20;2252.80;;;;;;4944153;28;20035;-85
2022/02/05 15:52:41;;;;;;;284.58;179.20;;;179.20;2252.80;;;;;;4943933;28;20091;-83
2022/02/05 15:55:10;;;;;;;343.35;218.13;;;179.20;2252.80;;;;;;4927220;29;20036;-83
2022/02/05 15:58:01;;;;;;;307.10;208.50;;;179.20;2252.80;;;;;;4923716;29;20084;-83